createdAt,value
2022-09-01T00:03:28.277Z,11.92
2022-09-01T00:08:32.189Z,11.80
2022-09-01T00:13:35.206Z,11.64
2022-09-01T00:18:37.438Z,11.57
2022-09-01T00:23:39.896Z,11.46
2022-09-01T00:28:41.850Z,11.40
2022-09-01T00:33:43.663Z,11.28
2022-09-01T00:38:45.508Z,11.19
2022-09-01T00:43:50.858Z,11.17
2022-09-01T00:49:09.173Z,11.18
2022-09-01T00:54:15.248Z,11.07
2022-09-01T00:59:19.747Z,11.14
2022-09-01T01:04:22.791Z,11.12
2022-09-01T01:09:27.071Z,11.15
2022-09-01T01:14:32.845Z,11.19
2022-09-01T01:19:56.223Z,11.26
2022-09-01T01:24:58.784Z,11.37
2022-09-01T01:30:06.585Z,11.43
2022-09-01T01:35:14.970Z,11.52
2022-09-01T01:40:22.199Z,11.62
2022-09-01T01:45:25.228Z,11.66
2022-09-01T01:50:35.878Z,11.62
2022-09-01T01:55:39.273Z,11.66
2022-09-01T02:00:44.713Z,11.62
2022-09-01T02:05:49.016Z,11.61
2022-09-01T02:10:55.554Z,11.57
2022-09-01T02:16:07.734Z,11.53
2022-09-01T02:21:17.658Z,11.49
2022-09-01T02:26:23.784Z,11.43
2022-09-01T02:31:28.058Z,11.26
2022-09-01T02:36:37.831Z,11.17
2022-09-01T02:41:41.351Z,11.05
2022-09-01T02:46:44.875Z,10.98
2022-09-01T02:51:52.246Z,10.84
2022-09-01T02:56:54.851Z,10.77
2022-09-01T03:01:58.721Z,10.69
2022-09-01T03:07:02.035Z,10.62
2022-09-01T03:12:04.543Z,10.44
2022-09-01T03:17:06.450Z,10.36
2022-09-01T03:22:10.276Z,10.36
2022-09-01T03:27:13.542Z,10.31
2022-09-01T03:32:15.737Z,10.26
2022-09-01T03:37:19.068Z,10.24
2022-09-01T03:42:22.952Z,10.21
2022-09-01T03:47:25.303Z,10.22
2022-09-01T03:52:30.086Z,10.09
2022-09-01T03:57:34.363Z,10.01
2022-09-01T04:02:36.246Z,10.03
2022-09-01T04:07:38.643Z,9.97
2022-09-01T04:12:40.496Z,9.90
2022-09-01T04:18:00.769Z,9.85
2022-09-01T04:23:10.986Z,9.85
2022-09-01T04:28:23.040Z,9.91
2022-09-01T04:33:34.921Z,10.02
2022-09-01T04:38:37.462Z,10.23
2022-09-01T04:43:40.161Z,10.48
2022-09-01T04:48:46.003Z,10.59
2022-09-01T04:53:50.724Z,10.81
2022-09-01T04:58:56.826Z,10.98
2022-09-01T05:04:03.969Z,11.14
2022-09-01T05:09:13.092Z,11.28
2022-09-01T05:14:48.628Z,11.35
2022-09-01T05:19:54.439Z,11.48
2022-09-01T05:24:56.322Z,11.62
2022-09-01T05:30:00.318Z,11.85
2022-09-01T05:35:02.361Z,12.11
2022-09-01T05:40:16.535Z,12.34
2022-09-01T05:45:20.541Z,12.51
2022-09-01T05:50:22.877Z,12.62
2022-09-01T05:55:27.776Z,12.82
2022-09-01T06:00:34.831Z,12.93
2022-09-01T06:05:38.140Z,13.26
2022-09-01T06:10:45.306Z,13.53
2022-09-01T06:15:50.964Z,13.66
2022-09-01T06:20:53.408Z,13.71
2022-09-01T06:25:55.502Z,13.88
2022-09-01T06:30:58.597Z,14.05
2022-09-01T06:36:03.984Z,14.13
2022-09-01T06:41:13.064Z,14.30
2022-09-01T06:46:20.206Z,14.58
2022-09-01T06:51:23.365Z,14.94
2022-09-01T06:56:31.953Z,14.98
2022-09-01T07:01:35.477Z,15.07
2022-09-01T07:12:25.792Z,15.07
2022-09-01T07:17:30.759Z,15.11
2022-09-01T07:22:39.243Z,15.49
2022-09-01T07:27:56.320Z,16.03
2022-09-01T07:43:53.288Z,17.19
2022-09-01T07:54:27.576Z,17.14
2022-09-01T07:59:33.439Z,17.05
2022-09-01T08:04:55.804Z,17.10
2022-09-01T08:10:01.282Z,17.15
2022-09-01T08:15:41.134Z,17.41
2022-09-01T08:20:30.681Z,17.55
2022-09-01T08:25:50.700Z,17.84
2022-09-01T08:30:53.000Z,18.34
2022-09-01T08:35:58.358Z,18.29
2022-09-01T08:41:03.383Z,18.37
2022-09-01T08:46:23.481Z,18.96
2022-09-01T08:51:37.527Z,19.39
2022-09-01T08:56:41.096Z,19.10
2022-09-01T09:02:12.127Z,19.35
2022-09-01T09:07:20.142Z,19.61
2022-09-01T09:12:48.628Z,19.20
2022-09-01T09:18:04.629Z,19.05
2022-09-01T09:23:36.413Z,19.04
2022-09-01T09:28:40.196Z,19.16
2022-09-01T09:33:51.840Z,19.38
2022-09-01T09:39:20.977Z,19.35
2022-09-01T09:44:29.987Z,19.55
2022-09-01T09:49:36.416Z,19.79
2022-09-01T09:54:42.725Z,19.93
2022-09-01T09:59:59.114Z,20.06
2022-09-01T10:05:24.960Z,19.35
2022-09-01T10:10:44.261Z,18.75
2022-09-01T10:15:51.668Z,19.33
2022-09-01T10:21:00.759Z,19.94
2022-09-01T10:26:19.398Z,20.26
2022-09-01T10:31:22.166Z,21.24
2022-09-01T10:36:24.778Z,22.07
2022-09-01T10:42:07.554Z,22.55
2022-09-01T10:47:33.524Z,21.67
2022-09-01T10:52:43.447Z,21.89
2022-09-01T11:03:57.571Z,23.07
2022-09-01T11:09:19.434Z,25.74
2022-09-01T11:14:29.387Z,25.59
2022-09-01T11:20:10.716Z,25.32
2022-09-01T11:25:40.907Z,24.70
2022-09-01T11:31:35.715Z,24.13
2022-09-01T11:36:48.653Z,24.14
2022-09-01T11:41:57.464Z,24.68
2022-09-01T11:47:18.420Z,24.82
2022-09-01T11:52:23.303Z,23.85
2022-09-01T11:57:32.271Z,22.75
2022-09-01T12:02:42.546Z,22.68
2022-09-01T12:07:47.519Z,22.58
2022-09-01T12:12:49.498Z,22.19
2022-09-01T12:17:52.835Z,21.67
2022-09-01T12:22:55.615Z,21.81
2022-09-01T12:28:01.030Z,22.17
2022-09-01T12:33:23.353Z,22.70
2022-09-01T12:38:29.040Z,28.75
2022-09-01T12:43:36.961Z,28.73
2022-09-01T12:48:41.796Z,24.71
2022-09-01T12:53:52.833Z,24.04
2022-09-01T12:59:15.488Z,24.69
2022-09-01T13:04:22.577Z,26.34
2022-09-01T13:09:24.744Z,23.81
2022-09-01T13:14:26.572Z,26.65
2022-09-01T13:19:30.601Z,31.15
2022-09-01T13:24:32.748Z,34.03
2022-09-01T13:29:34.622Z,36.00
2022-09-01T13:34:36.524Z,39.63
2022-09-01T13:39:38.359Z,37.62
2022-09-01T13:44:40.304Z,39.17
2022-09-01T13:49:44.514Z,37.90
2022-09-01T13:55:05.652Z,38.58
2022-09-01T14:00:11.678Z,39.38
2022-09-01T14:05:13.593Z,41.39
2022-09-01T14:10:16.561Z,40.55
2022-09-01T14:15:25.128Z,41.09
2022-09-01T14:20:36.993Z,39.86
2022-09-01T14:25:46.210Z,41.92
2022-09-01T14:35:51.468Z,34.59
2022-09-01T14:40:53.453Z,32.37
2022-09-01T14:46:10.283Z,27.42
2022-09-01T14:51:20.552Z,25.88
2022-09-01T14:56:23.584Z,24.02
2022-09-01T15:01:34.624Z,23.29
2022-09-01T15:06:36.828Z,22.73
2022-09-01T15:11:43.977Z,22.10
2022-09-01T15:16:47.554Z,21.94
2022-09-01T15:21:49.483Z,21.52
2022-09-01T15:26:51.477Z,20.88
2022-09-01T15:31:54.077Z,20.25
2022-09-01T15:36:55.901Z,19.59
2022-09-01T15:41:57.788Z,19.62
2022-09-01T15:46:59.703Z,19.45
2022-09-01T15:52:01.755Z,18.97
2022-09-01T15:57:04.323Z,18.73
2022-09-01T16:02:07.605Z,18.49
2022-09-01T16:07:09.557Z,18.37
2022-09-01T16:12:11.274Z,18.52
2022-09-01T16:17:34.280Z,18.57
2022-09-01T16:22:42.559Z,18.60
2022-09-01T16:27:45.849Z,18.54
2022-09-01T16:32:48.845Z,18.44
2022-09-01T16:38:22.511Z,18.17
2022-09-01T16:43:32.691Z,17.99
2022-09-01T16:48:47.226Z,17.84
2022-09-01T16:53:56.374Z,17.65
2022-09-01T16:59:34.464Z,17.45
2022-09-01T17:04:47.434Z,17.30
2022-09-01T17:10:08.717Z,17.15
2022-09-01T17:15:18.182Z,16.95
2022-09-01T17:20:24.049Z,16.87
2022-09-01T17:25:33.055Z,16.63
2022-09-01T17:30:44.900Z,16.51
2022-09-01T17:35:59.799Z,16.31
2022-09-01T17:41:45.263Z,16.28
2022-09-01T17:47:13.711Z,16.05
2022-09-01T17:52:47.373Z,15.81
2022-09-01T17:58:27.843Z,15.78
2022-09-01T18:03:49.221Z,15.40
2022-09-01T18:08:55.471Z,15.05
2022-09-01T18:14:00.130Z,14.77
2022-09-01T18:19:24.469Z,14.72
2022-09-01T18:24:32.561Z,14.34
2022-09-01T18:29:34.244Z,14.01
2022-09-01T18:35:02.652Z,13.74
2022-09-01T18:40:28.750Z,13.44
2022-09-01T18:46:09.023Z,13.20
2022-09-01T18:51:20.070Z,13.01
2022-09-01T18:56:52.745Z,12.89
2022-09-01T19:02:03.277Z,12.83
2022-09-01T19:07:39.786Z,12.67
2022-09-01T19:13:03.470Z,12.48
2022-09-01T19:18:39.109Z,12.34
2022-09-01T19:23:47.377Z,12.24
2022-09-01T19:29:06.673Z,12.14
2022-09-01T19:34:17.075Z,12.07
2022-09-01T19:39:25.993Z,12.05
2022-09-01T19:44:44.549Z,11.98
2022-09-01T19:50:05.765Z,12.11
2022-09-01T19:55:17.431Z,11.96
2022-09-01T20:00:26.706Z,11.94
2022-09-01T20:05:32.244Z,11.87
2022-09-01T20:10:56.506Z,11.83
2022-09-01T20:16:41.721Z,11.62
2022-09-01T20:21:47.358Z,11.43
2022-09-01T20:27:01.710Z,11.28
2022-09-01T20:32:05.034Z,11.27
2022-09-01T20:37:22.073Z,11.12
2022-09-01T20:42:37.164Z,10.93
2022-09-01T20:47:39.121Z,10.85
2022-09-01T20:53:02.948Z,10.76
2022-09-01T20:58:15.814Z,10.63
2022-09-01T21:03:45.523Z,10.54
2022-09-01T21:09:09.906Z,10.42
2022-09-01T21:14:48.467Z,10.29
2022-09-01T21:19:56.881Z,10.27
2022-09-01T21:24:58.517Z,10.20
2022-09-01T21:30:10.651Z,10.08
2022-09-01T21:35:15.462Z,9.99
2022-09-01T21:40:21.717Z,9.96
2022-09-01T21:45:23.568Z,9.88
2022-09-01T21:50:25.934Z,9.83
2022-09-01T21:55:28.872Z,9.77
2022-09-01T22:00:34.102Z,9.63
2022-09-01T22:05:41.814Z,9.56
2022-09-01T22:10:47.112Z,9.47
2022-09-01T22:15:51.885Z,9.41
2022-09-01T22:21:08.042Z,9.37
2022-09-01T22:26:15.424Z,9.32
2022-09-01T22:31:19.886Z,9.30
2022-09-01T22:36:25.715Z,9.21
2022-09-01T22:41:30.797Z,9.18
2022-09-01T22:46:35.368Z,9.13
2022-09-01T22:51:41.328Z,9.13
2022-09-01T22:56:43.290Z,9.06
2022-09-01T23:01:47.595Z,9.02
2022-09-01T23:06:52.238Z,8.95
2022-09-01T23:11:53.866Z,8.89
2022-09-01T23:16:55.619Z,8.89
2022-09-01T23:21:57.282Z,8.90
2022-09-01T23:26:58.909Z,8.89
2022-09-01T23:32:00.542Z,8.84
2022-09-01T23:37:02.277Z,8.77
2022-09-01T23:42:04.137Z,8.71
2022-09-01T23:47:05.933Z,8.66
2022-09-01T23:52:07.986Z,8.66
2022-09-01T23:57:10.509Z,8.66
